Tiempo atmosférico en la estación meteorológica de El Paso, Santa Cruz de Tenerife (844 m.)



Fecha
DESCASC
Temp. máxima en grados centígrados (hora)
DESCASC
Temp. mínima en grados centígrados (hora)
DESCASC
Temp. media en grados centígrados
DESCASC
Racha de viento máxima en m/sg (hora)
DESCASC
Velocidad máxima media en intervalos de 10 minutos(hora)
DESCASC
Precipitaciones diarias en mm
DESCASC
Precipitaciones de 00:00 a 06:00 en mm
DESCASC
Precipitaciones de 06:00 a 12:00 en mm
DESCASC
Precipitaciones de 12:00 a 18:00 en mm
DESCASC
Precipitaciones de 18:00 a 24:00 en mm
DESCASC
18-10-2018 17.4 (15:20) 13.2 (23:20) 15.3 21.39 (05:30) 10 (21:30) 0 0 0 0 0
17-10-2018 19.2 (14:40) 12.8 (07:50) 16 15.56 (19:10) 7.78 (17:40) 0 0 0 0 0
16-10-2018 20 (12:10) 11.5 (08:00) 15.8 8.33 (15:30) 4.17 (17:00) 0 0 0 0 0
15-10-2018 20.1 (15:40) 13.8 (23:59) 17 13.89 (13:30) 7.78 (13:20) 0.2 0.2 0 0 0
14-10-2018 22.5 (12:10) 13.9 (00:00) 18.2 19.17 (22:30) 9.17 (21:20) 3.6 0 0 0.4 3.2
13-10-2018 22 (12:30) 11 (00:00) 16.5 8.33 (12:00) 5.28 (12:00) 0 0 0 0 0
12-10-2018 22.2 (14:50) 11.7 (00:00) 17 6.94 (15:10) 4.17 (15:20) 0 0 0 0 0
11-10-2018 21.5 (13:50) 12.7 (07:40) 17.1 6.94 (14:30) 3.89 (14:30) 0 0 0 0 0
10-10-2018 21.5 (15:10) 14.5 (00:00) 18 8.33 (16:40) 5.28 (16:30) 0.2 0.2 0 0 0
09-10-2018 18.5 (15:30) 16.1 (22:10) 17.3 10.56 (01:00) 6.39 (01:00) 23.6 12 8.6 2.2 0.8
08-10-2018 21.7 (15:10) 13.9 (08:50) 17.8 10 (17:30) 5.56 (16:50) 3 0 0 1.6 1.4
07-10-2018 26.1 (12:20) 14.3 (08:20) 20.2 9.44 (18:10) 5.28 (15:50) 0 0 0 0 0
06-10-2018 22.2 (12:30) 12.3 (06:00) 17.3 6.67 (15:00) 4.44 (15:00) 0 0 0 0 0
05-10-2018 21.9 (13:20) 13.5 (02:00) 17.7 6.39 (16:00) 3.89 (16:00) 0 0 0 0 0
04-10-2018 23.6 (12:20) 13.5 (00:00) 18.6 7.78 (07:30) 4.72 (16:40) 0 0 0 0 0
03-10-2018 23.6 (14:50) 12.9 (00:00) 18.3 6.11 (15:10) 4.17 (15:10) 0 0 0 0 0
02-10-2018 25.1 (12:00) 14.1 (00:00) 19.6 6.39 (12:30) 3.89 (12:30) 0 0 0 0 0
01-10-2018 24.6 (17:50) 14.5 (00:00) 19.6 7.78 (14:30) 4.17 (05:40) 0 0 0 0 0
30-09-2018 23.7 (11:40) 15.7 (00:00) 19.7 10 (00:20) 6.67 (01:00) 0 0 0 0 0
29-09-2018 24.1 (15:10) 17.3 (00:00) 20.7 15.83 (05:30) 8.89 (05:20) 0 0 0 0 0
28-09-2018 25.5 (16:50) 17.4 (00:00) 21.4 14.17 (07:30) 8.61 (07:40) 0 0 0 0 0
27-09-2018 31.7 (13:50) 21 (00:00) 26.4 14.17 (21:50) 6.39 (21:40) 0 0 0 0 0
26-09-2018 31.4 (15:10) 18.9 (00:00) 25.1 7.22 (14:10) 4.17 (16:50) 0 0 0 0 0
25-09-2018 31.2 (11:10) 19.8 (00:00) 25.5 6.67 (14:30) 3.61 (15:20) 0 0 0 0 0
24-09-2018 30.5 (14:20) 22.1 (00:00) 26.3 14.17 (06:30) 8.06 (12:00) 0 0 0 0 0
23-09-2018 30.6 (15:10) 17.3 (08:10) 23.9 12.5 (12:30) 7.22 (12:00) 0 0 0 0 0
22-09-2018 23.6 (17:30) 13 (08:40) 18.3 6.67 (14:30) 3.89 (15:50) 0 0 0 0 0

Gráficas

Temp. máximas Temp. mínimas Temp. medias Precipitaciones Rachas de viento máximas Velocidades máximas media en intervalos de 10 minutos

Datos horarios

Fecha y hora oficial Temperatura (ºC) Velocidad del viento (km/h) Dirección del viento Racha (km/h) Dirección de racha Precipitación (mm) Presión (hPa) Tendencia (hPa) Humedad (%)
2018-10-21 23:00:00 13.4 3 Este 7 Nordeste 0 -- -- 90
2018-10-21 22:00:00 14.6 2 Este 6 Noroeste 0 -- -- 87
2018-10-21 21:00:00 16 3 Noroeste 8 Oeste 0 -- -- 86
2018-10-21 20:00:00 17 5 Oeste 15 Oeste 0 -- -- 82
2018-10-21 19:00:00 18.4 7 Oeste 21 Oeste 0 -- -- 75
2018-10-21 18:00:00 18.9 8 Oeste 19 Oeste 0 -- -- 73
2018-10-21 17:00:00 19.6 10 Oeste 21 Oeste 0 -- -- 66
2018-10-21 16:00:00 19.4 11 Oeste 24 Oeste 0 -- -- 65
2018-10-21 15:00:00 18.7 11 Oeste 24 Oeste 0 -- -- 68
2018-10-21 14:00:00 19.6 10 Noroeste 22 Oeste 0 -- -- 65
2018-10-21 13:00:00 19.4 10 Oeste 22 Oeste 0 -- -- 67
2018-10-21 12:00:00 18.8 8 Oeste 17 Oeste 0 -- -- 64
2018-10-21 11:00:00 18.2 4 Sudoeste 10 Oeste 0 -- -- 63
2018-10-21 10:00:00 14.5 6 Este 12 Este 0 -- -- 78
2018-10-21 09:00:00 10.2 8 Este 11 Este 0 -- -- 89
2018-10-21 08:00:00 9.5 5 Sudeste 10 Este 0 -- -- 89
2018-10-21 07:00:00 10.1 6 Este 10 Este 0 -- -- 89
2018-10-21 06:00:00 10 6 Este 10 Este 0 -- -- 89
2018-10-21 05:00:00 10.2 6 Este 10 Este 0 -- -- 90
2018-10-21 04:00:00 10.7 5 Este 11 Este 0 -- -- 92
2018-10-21 03:00:00 11.4 5 Este 8 Este 0 -- -- 92
2018-10-21 02:00:00 11.3 4 Este 9 Este 0 -- -- 91
2018-10-21 01:00:00 12 6 Este 9 Este 0 -- -- 92
2018-10-21 00:00:00 12.2 5 Este 8 Nordeste 0 -- -- 91
2018-10-20 23:00:00 13 6 Este 9 Nordeste 0 -- -- 90
2018-10-20 22:00:00 14.1 4 Nordeste 6 Este 0 -- -- 91
2018-10-20 21:00:00 14.5 3 Nordeste 6 Este 0.4 -- -- 90
2018-10-20 20:00:00 15.8 0 Calma 15 Oeste 0.2 -- -- 85
2018-10-20 19:00:00 17.1 8 Oeste 24 Oeste 0 -- -- 80
2018-10-20 18:00:00 18.1 10 Oeste 22 Oeste 0 -- -- 67
2018-10-20 17:00:00 17.4 10 Oeste 23 Oeste 0 -- -- 75
2018-10-20 16:00:00 17.1 11 Oeste 23 Oeste 0 -- -- 76
2018-10-20 15:00:00 17.9 12 Oeste 26 Oeste 0 -- -- 75
2018-10-20 14:00:00 18.9 18 Oeste 26 Oeste 0 -- -- 72
2018-10-20 13:00:00 18.6 13 Oeste 23 Oeste 0 -- -- 74
2018-10-20 12:00:00 18.8 11 Oeste 18 Oeste 0 -- -- 69
2018-10-20 11:00:00 18.1 3 Sur 8 Oeste 0 -- -- 64
2018-10-20 10:00:00 14.4 2 Este 11 Este 0 -- -- 79
2018-10-20 09:00:00 10.2 5 Este 11 Este 0 -- -- 87
2018-10-20 08:00:00 10.2 5 Este 10 Este 0 -- -- 88
2018-10-20 07:00:00 10.2 6 Este 10 Este 0 -- -- 92
2018-10-20 06:00:00 10.6 5 Este 8 Este 0 -- -- 91
2018-10-20 05:00:00 11.4 5 Este 8 Este 0 -- -- 90
2018-10-20 04:00:00 12.3 3 Este 15 Sudeste 0 -- -- 86
2018-10-20 03:00:00 13 8 Sudeste 18 Este 0 -- -- 85
2018-10-20 02:00:00 13.5 6 Este 44 Sudeste 0 -- -- 82
2018-10-20 01:00:00 13.6 22 Este 46 Este 0.2 -- -- 87
2018-10-20 00:00:00 13.7 12 Este 33 Este 0.2 -- -- 90
2018-10-19 23:00:00 14.1 23 Este 36 Sudeste 0 -- -- 86
2018-10-19 22:00:00 13.7 10 Este 22 Este 0 -- -- 88
2018-10-19 21:00:00 13.7 5 Nordeste 13 Nordeste 0 -- -- 85
2018-10-19 20:00:00 15.2 5 Oeste 12 Oeste 0 -- -- 78
2018-10-19 19:00:00 15.9 6 Sudeste 12 Sudeste 0 -- -- 77
2018-10-19 18:00:00 15.9 4 Oeste 12 Oeste 0 -- -- 80
2018-10-19 17:00:00 15.6 6 Sudeste 14 Sur 0.2 -- -- 84
2018-10-19 16:00:00 15.2 2 Sudoeste 10 Este 0.2 -- -- 86
2018-10-19 15:00:00 15.1 6 Este 30 Este 0.4 -- -- 82
2018-10-19 14:00:00 16.1 9 Sudeste 30 Sudeste 0.2 -- -- 79
2018-10-19 13:00:00 16.1 11 Sudoeste 21 Oeste 0 -- -- 73
2018-10-19 12:00:00 15.6 4 Sudeste 32 Este 0 -- -- 71
2018-10-19 11:00:00 15.8 16 Este 34 Sudeste 0 -- -- 63
2018-10-19 10:00:00 14.7 7 Nordeste 54 Nordeste 0 -- -- 63
2018-10-19 09:00:00 12.5 19 Este 50 Este 0 -- -- 69
2018-10-19 08:00:00 13 25 Este 54 Este 0 -- -- 77
2018-10-19 07:00:00 13.2 22 Este 44 Este 0 -- -- 71
2018-10-19 06:00:00 13.2 23 Este 40 Este 0 -- -- 77
2018-10-19 05:00:00 13.1 23 Este 54 Sudeste 0 -- -- 74
2018-10-19 04:00:00 13 28 Este 53 Este 0 -- -- 78
2018-10-19 03:00:00 13.4 23 Este 45 Este 0 -- -- 86
2018-10-19 02:00:00 13.8 26 Este 50 Este 0 -- -- 80
2018-10-19 01:00:00 13.9 26 Este 51 Este 0 -- -- 69
2018-10-19 00:00:00 13.9 30 Este 54 Este 0 -- -- 66
2018-10-18 23:00:00 13.5 24 Este 49 Este 0 -- -- 80
2018-10-18 22:00:00 14.4 22 Este 61 Este 0 -- -- 75
2018-10-18 21:00:00 14 31 Este 61 Este 0 -- -- 77
2018-10-18 20:00:00 14.2 30 Este 54 Sudeste 0 -- -- 73
2018-10-18 19:00:00 14.9 29 Este 54 Sudeste 0 -- -- 72
2018-10-18 18:00:00 15.8 25 Este 51 Sudeste 0 -- -- 75
2018-10-18 17:00:00 16.7 26 Este 52 Sudeste 0 -- -- 73
2018-10-18 16:00:00 16.4 33 Este 57 Este 0 -- -- 72
2018-10-18 15:00:00 16.7 28 Este 54 Este 0 -- -- 74
2018-10-18 14:00:00 16.5 29 Este 53 Este 0 -- -- 79
2018-10-18 13:00:00 16.8 26 Este 49 Este 0 -- -- 81
2018-10-18 12:00:00 16.4 25 Este 48 Este 0 -- -- 86
2018-10-18 11:00:00 15.7 25 Este 52 Este 0 -- -- 91
2018-10-18 10:00:00 16.5 19 Este 46 Este 0 -- -- 88
2018-10-18 09:00:00 15.6 5 Norte 38 Sudeste 0 -- -- 80
2018-10-18 08:00:00 16 12 Nordeste 51 Sudeste 0 -- -- 79
2018-10-18 07:00:00 17 23 Este 59 Este 0 -- -- 75
2018-10-18 06:00:00 15.8 28 Este 77 Este 0 -- -- 76
2018-10-18 05:00:00 14.7 19 Este 39 Este 0 -- -- 80
2018-10-18 04:00:00 15.1 22 Este 44 Sudeste 0 -- -- 86
2018-10-18 03:00:00 16 11 Este 41 Este 0 -- -- 89
2018-10-18 02:00:00 15.8 19 Este 46 Este 0 -- -- 91
2018-10-18 01:00:00 16 20 Este 49 Sudeste 0 -- -- 86
2018-10-18 00:00:00 15.7 22 Este 47 Este 0 -- -- 90
2018-10-17 23:00:00 16.2 17 Este 41 Nordeste 0 -- -- 88
2018-10-17 22:00:00 15.7 7 Norte 46 Sudeste 0 -- -- 89
2018-10-17 21:00:00 15.9 7 Nordeste 44 Este 0 -- -- 88
2018-10-17 20:00:00 16.1 17 Este 56 Este 0 -- -- 82
2018-10-17 19:00:00 17.4 25 Este 51 Este 0 -- -- 75
2018-10-17 18:00:00 17.3 25 Este 46 Este 0 -- -- 78
2018-10-17 17:00:00 18.4 24 Este 46 Este 0 -- -- 74
2018-10-17 16:00:00 18.7 23 Este 45 Este 0 -- -- 69
2018-10-17 15:00:00 19.1 24 Este 45 Este 0 -- -- 68
2018-10-17 14:00:00 18.7 24 Sudeste 41 Este 0 -- -- 69
2018-10-17 13:00:00 18 23 Este 41 Sudeste 0 -- -- 74
2018-10-17 12:00:00 17.4 20 Este 37 Sudeste 0 -- -- 80
2018-10-17 11:00:00 17.7 13 Este 24 Este 0 -- -- 76
2018-10-17 10:00:00 16.5 12 Este 26 Sudeste 0 -- -- 80
2018-10-17 09:00:00 13.9 4 Este 17 Nordeste 0 -- -- 88
2018-10-17 08:00:00 13 6 Este 15 Sudeste 0 -- -- 86
2018-10-17 07:00:00 13.4 3 Este 25 Este 0 -- -- 82
2018-10-17 06:00:00 15.3 9 Este 29 Este 0 -- -- 80
2018-10-17 05:00:00 15.3 17 Nordeste 33 Este 0 -- -- 75
2018-10-17 04:00:00 13.3 6 Este 17 Este 0 -- -- 86
2018-10-17 03:00:00 14.5 4 Nordeste 16 Nordeste 0 -- -- 83
2018-10-17 02:00:00 15.1 3 Este 6 Este 0 -- -- 87
2018-10-17 01:00:00 14.6 3 Nordeste 8 Nordeste 0 -- -- 85
2018-10-17 00:00:00 15.7 2 Norte 11 Este 0 -- -- 86
2018-10-16 23:00:00 16.5 0 Calma 6 Este 0 -- -- 87
2018-10-16 22:00:00 16.9 2 Oeste 8 Sudoeste 0 -- -- 86
2018-10-16 21:00:00 17.1 5 Oeste 9 Sudoeste 0 -- -- 85
2018-10-16 20:00:00 17.5 4 Sudoeste 13 Oeste 0 -- -- 82
2018-10-16 19:00:00 18.5 10 Oeste 18 Sudeste 0 -- -- 78
2018-10-16 18:00:00 18.7 10 Sudeste 22 Este 0 -- -- 68
2018-10-16 17:00:00 19.4 15 Este 26 Sudeste 0 -- -- 66
2018-10-16 16:00:00 18.6 6 Este 30 Este 0 -- -- 70
2018-10-16 15:00:00 17.9 14 Este 26 Este 0 -- -- 74
2018-10-16 14:00:00 18 12 Sudeste 20 Sudeste 0 -- -- 78
2018-10-16 13:00:00 19 9 Oeste 16 Oeste 0 -- -- 79
2018-10-16 12:00:00 19.8 6 Oeste 20 Este 0 -- -- 73
2018-10-16 11:00:00 18.1 12 Este 20 Este 0 -- -- 74
2018-10-16 10:00:00 16.4 5 Sudeste 9 Sudeste 0 -- -- 82
2018-10-16 09:00:00 12.5 4 Este 7 Este 0 -- -- 94
2018-10-16 08:00:00 11.5 3 Este 9 Este 0 -- -- 93
2018-10-16 07:00:00 12.2 4 Este 8 Nordeste 0 -- -- 94
2018-10-16 06:00:00 12.3 4 Este 6 Nordeste 0 -- -- 94
2018-10-16 05:00:00 12.7 0 Calma 7 Este 0 -- -- 94
2018-10-16 04:00:00 12.6 4 Este 8 Este 0 -- -- 93
2018-10-16 03:00:00 12.7 4 Sudeste 8 Este 0 -- -- 93
2018-10-16 02:00:00 12.7 3 Este 9 Este 0 -- -- 92
2018-10-16 01:00:00 13.2 4 Este 8 Este 0 -- -- 92
2018-10-16 00:00:00 13.8 4 Nordeste 13 Este 0 -- -- 90
2018-10-15 23:00:00 14.6 4 Este 9 Este 0 -- -- 90
2018-10-15 22:00:00 15.1 2 Sudeste 4 Este 0 -- -- 88
2018-10-15 21:00:00 15.9 0 Calma 5 Sur 0 -- -- 84
2018-10-15 20:00:00 17.7 3 Sudoeste 12 Oeste 0 -- -- 81
2018-10-15 19:00:00 18.1 6 Sudeste 30 Este 0 -- -- 67
2018-10-15 18:00:00 18.1 21 Este 30 Este 0 -- -- 74
2018-10-15 17:00:00 19 19 Este 33 Este 0 -- -- 73
2018-10-15 16:00:00 19.8 19 Este 31 Este 0 -- -- 71
2018-10-15 15:00:00 19.4 22 Este 32 Este 0 -- -- 73
2018-10-15 14:00:00 18.9 19 Este 50 Este 0 -- -- 76
2018-10-15 13:00:00 18.6 27 Este 41 Este 0 -- -- 78
2018-10-15 12:00:00 18.8 19 Este 32 Este 0 -- -- 77
2018-10-15 11:00:00 17.8 16 Este 32 Este 0 -- -- 78
2018-10-15 10:00:00 16.4 17 Este 32 Este 0 -- -- 84
2018-10-15 09:00:00 14.8 10 Este 36 Sudeste 0 -- -- 91
2018-10-15 08:00:00 14.9 20 Este 35 Este 0 -- -- 91
2018-10-15 07:00:00 15.8 16 Este 36 Este 0 -- -- 87
2018-10-15 06:00:00 14.8 14 Este 32 Este 0 -- -- 89
2018-10-15 05:00:00 14.9 18 Este 32 Este 0 -- -- 92
2018-10-15 04:00:00 14.9 13 Sudeste 28 Sudeste 0 -- -- 93
2018-10-15 03:00:00 15.6 13 Este 32 Sudeste 0 -- -- 92
2018-10-15 02:00:00 15.8 15 Este 40 Este 0.2 -- -- 94
2018-10-15 01:00:00 16.1 17 Este 45 Este 0 -- -- 92
2018-10-15 00:00:00 16.1 26 Este 50 Este 0.2 -- -- 94
2018-10-14 23:00:00 16.7 26 Este 69 Este 0.2 -- -- 92
2018-10-14 22:00:00 17 26 Este 55 Este 0.4 -- -- 92
2018-10-14 21:00:00 17.1 29 Este 57 Este 0.6 -- -- 91
2018-10-14 20:00:00 17.5 30 Este 59 Nordeste 1 -- -- 92
2018-10-14 19:00:00 18.1 31 Este 55 Este 0.8 -- -- 91
2018-10-14 18:00:00 18.4 20 Este 43 Este 0.4 -- -- 90
2018-10-14 17:00:00 19.6 17 Nordeste 34 Norte 0 -- -- 84
2018-10-14 16:00:00 20.5 14 Este 45 Este 0 -- -- 80
2018-10-14 15:00:00 20.6 24 Este 53 Este 0 -- -- 86
2018-10-14 14:00:00 20.5 22 Este 37 Este 0 -- -- 86
2018-10-14 13:00:00 21.9 7 Noroeste 36 Sur 0 -- -- 75
2018-10-14 12:00:00 22.2 13 Oeste 24 Sudeste 0 -- -- 71
2018-10-14 11:00:00 20.3 10 Oeste 16 Oeste 0 -- -- 76
2018-10-14 10:00:00 18.5 2 Sudeste 8 Este 0 -- -- 81
2018-10-14 09:00:00 14.2 6 Este 11 Nordeste 0 -- -- 91
2018-10-14 08:00:00 13.9 3 Este 9 Este 0 -- -- 92
2018-10-14 07:00:00 14.4 5 Este 8 Nordeste 0 -- -- 91
2018-10-14 06:00:00 15.3 6 Este 11 Nordeste 0 -- -- 89
2018-10-14 05:00:00 16.1 3 Nordeste 7 Nordeste 0 -- -- 89
2018-10-14 04:00:00 16.5 3 Este 4 Sudeste 0 -- -- 92
2018-10-14 03:00:00 16.4 3 Nordeste 5 Nordeste 0 -- -- 92
2018-10-14 02:00:00 15.9 3 Sudeste 5 Este 0 -- -- 92
2018-10-14 01:00:00 15 2 Este 8 Este 0 -- -- 92
2018-10-14 00:00:00 15.5 5 Este 9 Este 0 -- -- 90
2018-10-13 23:00:00 16.4 4 Este 9 Nordeste 0 -- -- 89
2018-10-13 22:00:00 17.4 4 Este 9 Nordeste 0 -- -- 87
2018-10-13 21:00:00 19 0 Calma 4 Noroeste 0 -- -- 86
2018-10-13 20:00:00 19.4 4 Oeste 17 Oeste 0 -- -- 83
2018-10-13 19:00:00 20 8 Oeste 19 Oeste 0 -- -- 86
2018-10-13 18:00:00 20.3 13 Oeste 21 Oeste 0 -- -- 88
2018-10-13 17:00:00 20.5 13 Oeste 23 Oeste 0 -- -- 86
2018-10-13 16:00:00 21.1 14 Oeste 24 Oeste 0 -- -- 84
2018-10-13 15:00:00 21 13 Oeste 22 Oeste 0 -- -- 83
2018-10-13 14:00:00 21.3 10 Oeste 21 Oeste 0 -- -- 80
2018-10-13 13:00:00 21.8 12 Oeste 22 Oeste 0 -- -- 76
2018-10-13 12:00:00 21.4 19 Oeste 30 Oeste 0 -- -- 75
2018-10-13 11:00:00 19.3 10 Oeste 17 Oeste 0 -- -- 80
2018-10-13 10:00:00 17 6 Nordeste 13 Este 0 -- -- 80
2018-10-13 09:00:00 13.2 2 Sudeste 10 Este 0 -- -- 86
2018-10-13 08:00:00 12 3 Este 9 Este 0 -- -- 83
2018-10-13 07:00:00 12 7 Este 10 Este 0 -- -- 78
2018-10-13 06:00:00 11.1 6 Este 9 Este 0 -- -- 79
2018-10-13 05:00:00 11.4 6 Este 11 Este 0 -- -- 75
2018-10-13 04:00:00 12.3 6 Sudeste 11 Este 0 -- -- 80
2018-10-13 03:00:00 12.2 6 Este 11 Este 0 -- -- 78
2018-10-13 02:00:00 12.8 5 Sudeste 14 Sudeste 0 -- -- 78
2018-10-13 01:00:00 12.2 8 Este 12 Este 0 -- -- 86
2018-10-13 00:00:00 13.3 6 Este 15 Este 0 -- -- 85
2018-10-12 23:00:00 14 3 Sudeste 9 Este 0 -- -- 81
2018-10-12 22:00:00 16.2 5 Este 9 Este 0 -- -- 84
2018-10-12 21:00:00 16.6 5 Este 12 Este 0 -- -- 83
2018-10-12 20:00:00 18.4 5 Este 15 Oeste 0 -- -- 85
2018-10-12 19:00:00 19.6 5 Sudoeste 13 Oeste 0 -- -- 76
2018-10-12 18:00:00 19.7 9 Oeste 18 Oeste 0 -- -- 82
2018-10-12 17:00:00 20.7 4 Oeste 20 Oeste 0 -- -- 75
2018-10-12 16:00:00 21.4 11 Oeste 25 Oeste 0 -- -- 71
2018-10-12 15:00:00 22 13 Oeste 22 Oeste 0 -- -- 69
2018-10-12 14:00:00 21.4 10 Oeste 23 Oeste 0 -- -- 68
2018-10-12 13:00:00 21.7 12 Oeste 21 Oeste 0 -- -- 65
2018-10-12 12:00:00 21.6 9 Oeste 18 Oeste 0 -- -- 64
2018-10-12 11:00:00 21 6 Oeste 12 Oeste 0 -- -- 63
2018-10-12 10:00:00 17.3 4 Este 9 Este 0 -- -- 74
2018-10-12 09:00:00 11.8 4 Este 9 Este 0 -- -- 86
2018-10-12 08:00:00 12 7 Este 9 Este 0 -- -- 89
2018-10-12 07:00:00 12 6 Este 9 Sudeste 0 -- -- 87
2018-10-12 06:00:00 12.2 6 Este 11 Este 0 -- -- 88
2018-10-12 05:00:00 12.2 5 Sudeste 12 Este 0 -- -- 87
2018-10-12 04:00:00 12.1 5 Este 9 Este 0 -- -- 90
2018-10-12 03:00:00 12.7 4 Este 9 Este 0 -- -- 90
2018-10-12 02:00:00 12.8 5 Este 9 Este 0 -- -- 90
2018-10-12 01:00:00 13.1 5 Este 9 Este 0 -- -- 88
2018-10-12 00:00:00 13.9 5 Este 9 Este 0 -- -- 90
2018-10-11 23:00:00 14.7 3 Este 9 Este 0 -- -- 88
2018-10-11 22:00:00 15.7 3 Este 9 Nordeste 0 -- -- 85
2018-10-11 21:00:00 17.4 5 Este 7 Este 0 -- -- 86
2018-10-11 20:00:00 19 4 Sudoeste 13 Oeste 0 -- -- 81
2018-10-11 19:00:00 20.1 4 Sudoeste 16 Oeste 0 -- -- 80
2018-10-11 18:00:00 20.3 11 Oeste 20 Oeste 0 -- -- 82
2018-10-11 17:00:00 20 8 Oeste 18 Oeste 0 -- -- 81
2018-10-11 16:00:00 20 11 Oeste 20 Oeste 0 -- -- 80
2018-10-11 15:00:00 20.7 12 Oeste 25 Oeste 0 -- -- 79
2018-10-11 14:00:00 21.4 13 Oeste 20 Oeste 0 -- -- 72
2018-10-11 13:00:00 21.1 10 Oeste 24 Oeste 0 -- -- 74
2018-10-11 12:00:00 21.3 9 Sudoeste 16 Oeste 0 -- -- 68
2018-10-11 11:00:00 20.7 4 Oeste 10 Oeste 0 -- -- 72
2018-10-11 10:00:00 16.7 7 Nordeste 10 Nordeste 0 -- -- 85
2018-10-11 09:00:00 13.2 3 Este 8 Este 0 -- -- 93
2018-10-11 08:00:00 12.8 5 Este 9 Este 0 -- -- 94
2018-10-11 07:00:00 13 7 Este 10 Este 0 -- -- 93
2018-10-11 06:00:00 12.8 5 Este 9 Este 0 -- -- 94
2018-10-11 05:00:00 12.9 5 Este 10 Este 0 -- -- 93
2018-10-11 04:00:00 13.4 8 Este 10 Este 0 -- -- 92
2018-10-11 03:00:00 13.5 4 Este 8 Nordeste 0 -- -- 93
2018-10-11 02:00:00 13.8 4 Sudeste 9 Este 0 -- -- 93
2018-10-11 01:00:00 14.2 4 Este 8 Este 0 -- -- 91
2018-10-11 00:00:00 14.5 3 Este 8 Este 0 -- -- 91
2018-10-10 23:00:00 15.2 4 Este 6 Este 0 -- -- 89
2018-10-10 22:00:00 15.9 3 Este 7 Este 0 -- -- 87
2018-10-10 21:00:00 16.9 4 Este 6 Este 0 -- -- 85
2018-10-10 20:00:00 18.4 2 Sudoeste 15 Oeste 0 -- -- 84
2018-10-10 19:00:00 19.8 10 Oeste 23 Oeste 0 -- -- 80
2018-10-10 18:00:00 20.6 11 Oeste 26 Noroeste 0 -- -- 75
2018-10-10 17:00:00 21 16 Oeste 30 Oeste 0 -- -- 76
2018-10-10 16:00:00 20.8 17 Oeste 29 Oeste 0 -- -- 78
2018-10-10 15:00:00 21.2 15 Oeste 26 Oeste 0 -- -- 76
2018-10-10 14:00:00 20.7 13 Oeste 25 Oeste 0 -- -- 80
2018-10-10 13:00:00 20.3 17 Oeste 27 Oeste 0 -- -- 79
2018-10-10 12:00:00 19.5 14 Oeste 22 Oeste 0 -- -- 84
2018-10-10 11:00:00 19.7 7 Oeste 15 Oeste 0 -- -- 83
2018-10-10 10:00:00 17.8 7 Oeste 12 Sur 0 -- -- 92
2018-10-10 09:00:00 16 4 Oeste 15 Sudoeste 0 -- -- 95
2018-10-10 08:00:00 16.2 8 Sudoeste 17 Oeste 0 -- -- 96
2018-10-10 07:00:00 15.9 8 Sudoeste 16 Oeste 0 -- -- 95
2018-10-10 06:00:00 16 8 Noroeste 22 Oeste 0 -- -- 97
2018-10-10 05:00:00 15.9 5 Noroeste 16 Oeste 0.2 -- -- 97
2018-10-10 04:00:00 15.5 0 Calma 16 Sudoeste 0 -- -- 96
2018-10-10 03:00:00 16 9 Sudoeste 21 Oeste 0 -- -- 96
2018-10-10 02:00:00 16.1 8 Oeste 15 Oeste 0 -- -- 97
2018-10-10 01:00:00 16 4 Sudoeste 18 Sudoeste 0 -- -- 96
2018-10-10 00:00:00 16.4 9 Oeste 18 Oeste 0 -- -- 97
2018-10-09 23:00:00 16.2 8 Oeste 16 Oeste 0.4 -- -- 96
2018-10-09 22:00:00 16.2 4 Sudoeste 17 Oeste 0 -- -- 95
2018-10-09 21:00:00 16.5 8 Oeste 23 Oeste 0.2 -- -- 95
2018-10-09 20:00:00 16.7 14 Oeste 24 Oeste 0.2 -- -- 94
2018-10-09 19:00:00 16.9 10 Oeste 24 Oeste 0 -- -- 93
2018-10-09 18:00:00 17.4 17 Oeste 26 Oeste 1 -- -- 92
2018-10-09 17:00:00 17.7 14 Oeste 32 Oeste 1 -- -- 90
2018-10-09 16:00:00 18.4 21 Oeste 33 Oeste 0 -- -- 86
2018-10-09 15:00:00 17.9 21 Oeste 31 Oeste 0 -- -- 85
2018-10-09 14:00:00 18 18 Oeste 29 Oeste 0 -- -- 91
2018-10-09 13:00:00 17.9 17 Oeste 27 Sudoeste 0.2 -- -- 94
2018-10-09 12:00:00 17.2 13 Oeste 21 Oeste 0 -- -- 96
2018-10-09 11:00:00 16.9 12 Oeste 22 Oeste 0 -- -- 95
2018-10-09 10:00:00 16.9 8 Oeste 22 Oeste 0 -- -- 98
2018-10-09 09:00:00 16.4 11 Noroeste 22 Oeste 0.8 -- -- 97
2018-10-09 08:00:00 16.6 14 Oeste 28 Oeste 1.4 -- -- 97
2018-10-09 07:00:00 16.8 9 Noroeste 26 Noroeste 6.4 -- -- 97
2018-10-09 06:00:00 16.9 13 Oeste 28 Oeste 1 -- -- 97
2018-10-09 05:00:00 17.1 15 Oeste 33 Oeste 1.6 -- -- 97
2018-10-09 04:00:00 16.8 17 Oeste 27 Oeste 5.4 -- -- 97
2018-10-09 03:00:00 16.2 7 Noroeste 23 Oeste 2.6 -- -- 95
2018-10-09 02:00:00 16.8 13 Noroeste 30 Oeste 0.2 -- -- 95
2018-10-09 01:00:00 17.2 23 Oeste 38 Oeste 1.2 -- -- 95
2018-10-09 00:00:00 17.1 14 Oeste 28 Oeste 0.2 -- -- 94
2018-10-08 23:00:00 17.5 13 Noroeste 28 Noroeste 1 -- -- 94
2018-10-08 22:00:00 17.6 14 Oeste 26 Oeste 0 -- -- 94
2018-10-08 21:00:00 17.6 11 Oeste 20 Oeste 0.2 -- -- 92
2018-10-08 20:00:00 17.9 12 Oeste 23 Oeste 0 -- -- 91
2018-10-08 19:00:00 18.4 14 Oeste 30 Oeste 0 -- -- 90
2018-10-08 18:00:00 19.2 15 Oeste 36 Oeste 1.6 -- -- 85
2018-10-08 17:00:00 20.9 15 Oeste 28 Oeste 0 -- -- 71
2018-10-08 16:00:00 21.4 18 Oeste 32 Oeste 0 -- -- 68
2018-10-08 15:00:00 21.6 12 Noroeste 31 Oeste 0 -- -- 60
2018-10-08 14:00:00 21.1 19 Oeste 31 Oeste 0 -- -- 66
2018-10-08 13:00:00 21 15 Oeste 28 Oeste 0 -- -- 60
2018-10-08 12:00:00 21.2 14 Oeste 24 Oeste 0 -- -- 63
2018-10-08 11:00:00 20.4 13 Oeste 22 Oeste 0 -- -- 65
2018-10-08 10:00:00 18.4 7 Oeste 10 Oeste 0 -- -- 76
2018-10-08 09:00:00 14 0 Calma 7 Nordeste 0 -- -- 89
2018-10-08 08:00:00 14.9 2 Este 6 Sudoeste 0 -- -- 87
2018-10-08 07:00:00 16.2 0 Calma 13 Oeste 0 -- -- 87
2018-10-08 06:00:00 17.6 8 Oeste 21 Noroeste 0 -- -- 89
2018-10-08 05:00:00 17.7 11 Noroeste 26 Noroeste 0 -- -- 84
2018-10-08 04:00:00 18.4 11 Oeste 34 Noroeste 0 -- -- 90
2018-10-08 03:00:00 18.8 18 Noroeste 32 Oeste 0 -- -- 90
2018-10-08 02:00:00 19.1 17 Oeste 27 Noroeste 0 -- -- 88
2018-10-08 01:00:00 19.1 14 Oeste 21 Oeste 0 -- -- 82
2018-10-08 00:00:00 19.3 9 Noroeste 19 Oeste 0 -- -- 74
2018-10-07 23:00:00 19.5 8 Noroeste 20 Noroeste 0 -- -- 71
2018-10-07 22:00:00 19.8 9 Oeste 19 Noroeste 0 -- -- 67
2018-10-07 21:00:00 20 10 Noroeste 19 Noroeste 0 -- -- 62
2018-10-07 20:00:00 20.6 10 Noroeste 28 Oeste 0 -- -- 54
2018-10-07 19:00:00 22.3 16 Oeste 34 Oeste 0 -- -- 55
2018-10-07 18:00:00 23.8 14 Noroeste 29 Oeste 0 -- -- 53
2018-10-07 17:00:00 24.5 13 Oeste 24 Oeste 0 -- -- 55
2018-10-07 16:00:00 24.9 16 Oeste 29 Oeste 0 -- -- 55
2018-10-07 15:00:00 25.8 13 Noroeste 27 Norte 0 -- -- 52
2018-10-07 14:00:00 25.6 12 Noroeste 25 Oeste 0 -- -- 47
2018-10-07 13:00:00 26 12 Noroeste 24 Oeste 0 -- -- 48
2018-10-07 12:00:00 25.5 7 Oeste 17 Noroeste 0 -- -- 50
2018-10-07 11:00:00 24.5 7 Oeste 17 Oeste 0 -- -- 50
2018-10-07 10:00:00 20.2 4 Este 9 Este 0 -- -- 67
2018-10-07 09:00:00 15.6 4 Este 10 Sudeste 0 -- -- 82
2018-10-07 08:00:00 14.4 4 Este 8 Sur 0 -- -- 80
2018-10-07 07:00:00 14.4 7 Este 10 Este 0 -- -- 82
2018-10-07 06:00:00 14.7 2 Este 10 Este 0 -- -- 78
2018-10-07 05:00:00 14.9 4 Este 11 Este 0 -- -- 78
2018-10-07 04:00:00 15.2 6 Este 9 Este 0 -- -- 82
2018-10-07 03:00:00 15.4 6 Sudeste 10 Este 0 -- -- 83
2018-10-07 02:00:00 16.1 3 Sudeste 9 Este 0 -- -- 77
2018-10-07 01:00:00 17.4 2 Este 5 Sudoeste 0 -- -- 71
2018-10-07 00:00:00 17.8 0 Calma 8 Sudoeste 0 -- -- 69
2018-10-06 23:00:00 17.7 0 Calma 7 Oeste 0 -- -- 69
2018-10-06 22:00:00 17.6 3 Oeste 8 Oeste 0 -- -- 75
2018-10-06 21:00:00 18.1 3 Noroeste 6 Nordeste 0 -- -- 76
2018-10-06 20:00:00 18.2 3 Este 9 Este 0 -- -- 83
2018-10-06 19:00:00 19.1 6 Noroeste 19 Oeste 0 -- -- 83
2018-10-06 18:00:00 19.9 6 Oeste 19 Oeste 0 -- -- 78
2018-10-06 17:00:00 20.7 13 Oeste 22 Oeste 0 -- -- 75
2018-10-06 16:00:00 20.9 5 Sudoeste 22 Oeste 0 -- -- 77
2018-10-06 15:00:00 21.5 16 Oeste 24 Oeste 0 -- -- 75
2018-10-06 14:00:00 21.4 12 Oeste 21 Noroeste 0 -- -- 75
2018-10-06 13:00:00 21.6 16 Oeste 23 Oeste 0 -- -- 72
2018-10-06 12:00:00 21.7 8 Oeste 19 Sudoeste 0 -- -- 66
2018-10-06 11:00:00 21.4 9 Oeste 15 Oeste 0 -- -- 60
2018-10-06 10:00:00 18.9 0 Calma 10 Este 0 -- -- 64
2018-10-06 09:00:00 12.9 6 Sudeste 11 Este 0 -- -- 80
2018-10-06 08:00:00 12.8 4 Sudeste 12 Este 0 -- -- 78
2018-10-06 07:00:00 13.1 6 Este 11 Este 0 -- -- 77
2018-10-06 06:00:00 12.3 3 Este 8 Este 0 -- -- 75
2018-10-06 05:00:00 13.3 2 Este 13 Este 0 -- -- 70
2018-10-06 04:00:00 13.1 9 Este 14 Este 0 -- -- 75
2018-10-06 03:00:00 12.6 4 Este 7 Este 0 -- -- 75
2018-10-06 02:00:00 13.1 4 Sudeste 8 Este 0 -- -- 75
2018-10-06 01:00:00 13.4 4 Nordeste 6 Nordeste 0 -- -- 80
2018-10-06 00:00:00 14.1 3 Este 6 Este 0 -- -- 84
2018-10-05 23:00:00 14.7 3 Este 8 Este 0 -- -- 81
2018-10-05 22:00:00 16.2 2 Nordeste 5 Sudeste 0 -- -- 83
2018-10-05 21:00:00 17.4 2 Nordeste 13 Oeste 0 -- -- 85
2018-10-05 20:00:00 18.5 10 Oeste 19 Oeste 0 -- -- 82
2018-10-05 19:00:00 19.5 5 Oeste 17 Oeste 0 -- -- 78
2018-10-05 18:00:00 19.4 13 Oeste 21 Oeste 0 -- -- 78
2018-10-05 17:00:00 20.6 11 Noroeste 21 Oeste 0 -- -- 75
2018-10-05 16:00:00 20.8 14 Oeste 23 Oeste 0 -- -- 75
2018-10-05 15:00:00 20.3 3 Este 18 Oeste 0 -- -- 68
2018-10-05 14:00:00 21.2 10 Oeste 19 Oeste 0 -- -- 71
2018-10-05 13:00:00 21.8 9 Oeste 17 Sudoeste 0 -- -- 68
2018-10-05 12:00:00 19.9 3 Noroeste 16 Oeste 0 -- -- 74
2018-10-05 11:00:00 19 3 Sur 12 Oeste 0 -- -- 76
2018-10-05 10:00:00 16.8 2 Nordeste 12 Oeste 0 -- -- 84
2018-10-05 09:00:00 14.5 5 Este 9 Este 0 -- -- 72
2018-10-05 08:00:00 14.3 0 Calma 10 Este 0 -- -- 82
2018-10-05 07:00:00 13.9 4 Sudoeste 14 Sudoeste 0 -- -- 84
2018-10-05 06:00:00 14.3 3 Nordeste 8 Este 0 -- -- 83
2018-10-05 05:00:00 14.4 5 Sudoeste 13 Este 0 -- -- 77
2018-10-05 04:00:00 14.3 6 Este 10 Este 0 -- -- 76
2018-10-05 03:00:00 14 7 Este 9 Este 0 -- -- 71
2018-10-05 02:00:00 13.5 4 Este 6 Este 0 -- -- 78
2018-10-05 01:00:00 14 4 Este 7 Este 0 -- -- 79
2018-10-05 00:00:00 14.6 4 Este 6 Nordeste 0 -- -- 81
2018-10-04 23:00:00 16 4 Este 6 Este 0 -- -- 86
2018-10-04 22:00:00 16.8 2 Este 7 Este 0 -- -- 82
2018-10-04 21:00:00 18.2 3 Sudoeste 4 Sudoeste 0 -- -- 87
2018-10-04 20:00:00 19.3 3 Noroeste 12 Oeste 0 -- -- 85
2018-10-04 19:00:00 20 3 Oeste 12 Oeste 0 -- -- 81
2018-10-04 18:00:00 20.8 10 Oeste 14 Oeste 0 -- -- 78
2018-10-04 17:00:00 21.4 10 Oeste 24 Oeste 0 -- -- 76
2018-10-04 16:00:00 21.4 7 Oeste 23 Oeste 0 -- -- 76
2018-10-04 15:00:00 22.6 15 Oeste 24 Oeste 0 -- -- 72
2018-10-04 14:00:00 22.3 8 Oeste 22 Oeste 0 -- -- 73
2018-10-04 13:00:00 22.6 15 Oeste 22 Oeste 0 -- -- 71
2018-10-04 12:00:00 22.7 5 Oeste 23 Oeste 0 -- -- 67
2018-10-04 11:00:00 22.7 4 Noroeste 24 Este 0 -- -- 62
2018-10-04 10:00:00 20 10 Sudeste 22 Sur 0 -- -- 48
2018-10-04 09:00:00 16.1 7 Este 19 Sudeste 0 -- -- 82
2018-10-04 08:00:00 16.2 9 Este 28 Sudoeste 0 -- -- 76
2018-10-04 07:00:00 15.2 10 Este 17 Este 0 -- -- 89
2018-10-04 06:00:00 13.5 5 Este 10 Nordeste 0 -- -- 73
2018-10-04 05:00:00 13.7 0 Calma 9 Este 0 -- -- 83
2018-10-04 04:00:00 14.1 6 Este 10 Nordeste 0 -- -- 86
2018-10-04 03:00:00 14.2 5 Este 10 Sudoeste 0 -- -- 84
2018-10-04 02:00:00 14.4 3 Sudeste 9 Este 0 -- -- 67
2018-10-04 01:00:00 14.5 4 Sur 10 Este 0 -- -- 79
2018-10-04 00:00:00 14.8 5 Este 9 Este 0 -- -- 74
2018-10-03 23:00:00 15.7 5 Nordeste 8 Nordeste 0 -- -- 67
2018-10-03 22:00:00 17 0 Calma 12 Sudoeste 0 -- -- 86
2018-10-03 21:00:00 18 4 Este 13 Oeste 0 -- -- 86
2018-10-03 20:00:00 19.9 6 Oeste 13 Oeste 0 -- -- 77
2018-10-03 19:00:00 22.2 7 Oeste 17 Oeste 0 -- -- 70
2018-10-03 18:00:00 22.9 5 Oeste 22 Oeste 0 -- -- 67
2018-10-03 17:00:00 23 8 Sudoeste 22 Oeste 0 -- -- 66
2018-10-03 16:00:00 23.2 8 Oeste 22 Oeste 0 -- -- 67
2018-10-03 15:00:00 23.6 14 Oeste 22 Oeste 0 -- -- 67
2018-10-03 14:00:00 22.6 9 Oeste 22 Oeste 0 -- -- 70
2018-10-03 13:00:00 22.8 13 Oeste 21 Oeste 0 -- -- 67
2018-10-03 12:00:00 22.7 10 Oeste 18 Oeste 0 -- -- 64
2018-10-03 11:00:00 22 5 Oeste 9 Oeste 0 -- -- 63
2018-10-03 10:00:00 17.9 3 Sudoeste 8 Oeste 0 -- -- 78
2018-10-03 09:00:00 14 2 Sudeste 9 Oeste 0 -- -- 85
2018-10-03 08:00:00 13.6 2 Sur 9 Este 0 -- -- 62
2018-10-03 07:00:00 13.2 5 Sudeste 9 Este 0 -- -- 66
2018-10-03 06:00:00 13.2 6 Este 8 Este 0 -- -- 67
2018-10-03 05:00:00 13.2 3 Sudeste 11 Sudoeste 0 -- -- 67
2018-10-03 04:00:00 12.9 2 Este 9 Este 0 -- -- 62
2018-10-03 03:00:00 13.6 3 Este 9 Este 0 -- -- 64
2018-10-03 02:00:00 14.7 2 Este 8 Sudoeste 0 -- -- 77
2018-10-03 01:00:00 14.2 5 Este 10 Este 0 -- -- 58
2018-10-03 00:00:00 15.5 2 Noroeste 9 Oeste 0 -- -- 59
2018-10-02 23:00:00 16.3 2 Este 10 Este 0 -- -- 58
2018-10-02 22:00:00 16.7 3 Este 9 Oeste 0 -- -- 63
2018-10-02 21:00:00 18.8 4 Sur 9 Sudoeste 0 -- -- 73
2018-10-02 20:00:00 22.3 8 Oeste 12 Oeste 0 -- -- 71
2018-10-02 19:00:00 23.8 5 Oeste 15 Oeste 0 -- -- 63
2018-10-02 18:00:00 24.1 9 Oeste 18 Oeste 0 -- -- 63
2018-10-02 17:00:00 23.9 8 Oeste 21 Oeste 0 -- -- 64
2018-10-02 16:00:00 24.9 14 Oeste 21 Oeste 0 -- -- 63
2018-10-02 15:00:00 25 11 Oeste 21 Oeste 0 -- -- 59
2018-10-02 14:00:00 24.3 9 Oeste 18 Noroeste 0 -- -- 58
2018-10-02 13:00:00 24 9 Oeste 23 Oeste 0 -- -- 64
2018-10-02 12:00:00 25.1 9 Oeste 17 Oeste 0 -- -- 55
2018-10-02 11:00:00 24 7 Oeste 20 Oeste 0 -- -- 50
2018-10-02 10:00:00 22 4 Este 10 Este 0 -- -- 43
2018-10-02 09:00:00 15.1 7 Este 10 Este 0 -- -- 56
2018-10-02 08:00:00 14.8 6 Este 9 Este 0 -- -- 56
2018-10-02 07:00:00 14.3 4 Este 9 Este 0 -- -- 61
2018-10-02 06:00:00 14.5 3 Sudeste 14 Sudoeste 0 -- -- 60
2018-10-02 05:00:00 14.7 6 Sudeste 10 Sudeste 0 -- -- 59
2018-10-02 04:00:00 14.9 5 Sudoeste 10 Oeste 0 -- -- 65
2018-10-02 03:00:00 14.7 7 Este 9 Este 0 -- -- 61
2018-10-02 02:00:00 15.2 3 Sudeste 10 Este 0 -- -- 64
2018-10-02 01:00:00 15.4 6 Este 11 Este 0 -- -- 72
2018-10-02 00:00:00 16.1 2 Este 9 Este 0 -- -- 81
2018-10-01 23:00:00 17.3 4 Este 7 Este 0 -- -- 80
2018-10-01 22:00:00 18.3 2 Nordeste 5 Este 0 -- -- 79
2018-10-01 21:00:00 20 4 Este 7 Oeste 0 -- -- 78
2018-10-01 20:00:00 21.6 3 Oeste 13 Oeste 0 -- -- 76
2018-10-01 19:00:00 23.3 8 Oeste 20 Oeste 0 -- -- 66
2018-10-01 18:00:00 24.6 10 Noroeste 21 Oeste 0 -- -- 60
2018-10-01 17:00:00 24.4 12 Oeste 21 Oeste 0 -- -- 58
2018-10-01 16:00:00 24.3 12 Oeste 22 Oeste 0 -- -- 56
2018-10-01 15:00:00 24 10 Oeste 28 Oeste 0 -- -- 59
2018-10-01 14:00:00 24 12 Oeste 22 Oeste 0 -- -- 58
2018-10-01 13:00:00 23.4 12 Oeste 22 Oeste 0 -- -- 63
2018-10-01 12:00:00 23.4 11 Oeste 17 Oeste 0 -- -- 56
2018-10-01 11:00:00 23.2 9 Oeste 14 Oeste 0 -- -- 56
2018-10-01 10:00:00 20.4 7 Oeste 10 Oeste 0 -- -- 58
2018-10-01 09:00:00 14.5 5 Este 9 Este 0 -- -- 67
2018-10-01 08:00:00 15 4 Sur 14 Este 0 -- -- 63
2018-10-01 07:00:00 16.6 6 Este 20 Este 0 -- -- 69
2018-10-01 06:00:00 17.2 11 Sudeste 24 Este 0 -- -- 72
2018-10-01 05:00:00 16.8 6 Este 20 Sudeste 0 -- -- 64
2018-10-01 04:00:00 14.9 7 Este 12 Este 0 -- -- 60
2018-10-01 03:00:00 15 4 Este 9 Este 0 -- -- 60
2018-10-01 02:00:00 15.4 4 Este 8 Este 0 -- -- 68
2018-10-01 01:00:00 16 3 Este 10 Sudeste 0 -- -- 75
2018-10-01 00:00:00 16.3 2 Este 6 Este 0 -- -- 78
2018-09-30 23:00:00 16.8 3 Este 6 Este 0 -- -- 72
2018-09-30 22:00:00 17.2 5 Este 8 Este 0 -- -- 72
2018-09-30 21:00:00 19 3 Este 11 Oeste 0 -- -- 76
2018-09-30 20:00:00 20 6 Sudeste 15 Este 0 -- -- 69
2018-09-30 19:00:00 21.9 11 Oeste 22 Oeste 0 -- -- 73
2018-09-30 18:00:00 22.2 12 Oeste 25 Oeste 0 -- -- 69
2018-09-30 17:00:00 22.8 9 Oeste 24 Oeste 0 -- -- 66
2018-09-30 16:00:00 23 8 Oeste 23 Oeste 0 -- -- 58
2018-09-30 15:00:00 22.9 12 Oeste 22 Oeste 0 -- -- 63
2018-09-30 14:00:00 21.7 12 Oeste 21 Oeste 0 -- -- 71
2018-09-30 13:00:00 21.2 14 Oeste 27 Este 0 -- -- 75
2018-09-30 12:00:00 22.4 13 Sudeste 23 Este 0 -- -- 67
2018-09-30 11:00:00 22 10 Oeste 19 Oeste 0 -- -- 66
2018-09-30 10:00:00 21.3 8 Oeste 17 Sudeste 0 -- -- 61
2018-09-30 09:00:00 17.6 9 Sudeste 20 Este 0 -- -- 65
2018-09-30 08:00:00 17.1 10 Sudeste 29 Este 0 -- -- 70
2018-09-30 07:00:00 17.3 17 Sudeste 31 Este 0 -- -- 74
2018-09-30 06:00:00 17 11 Sudeste 24 Sudeste 0 -- -- 74
2018-09-30 05:00:00 17.1 10 Este 28 Este 0 -- -- 75
2018-09-30 04:00:00 16.9 14 Sudeste 23 Este 0 -- -- 73
2018-09-30 03:00:00 16.9 3 Este 29 Sudeste 0 -- -- 68
2018-09-30 02:00:00 18.5 19 Sudeste 36 Este 0 -- -- 66
2018-09-30 01:00:00 17.4 24 Sudeste 36 Sudeste 0 -- -- 79
2018-09-30 00:00:00 17.5 19 Sudeste 32 Este 0 -- -- 76
2018-09-29 23:00:00 17.3 10 Este 22 Este 0 -- -- 78
2018-09-29 22:00:00 18.3 4 Oeste 20 Sudeste 0 -- -- 80
2018-09-29 21:00:00 18.9 14 Sudeste 27 Sudeste 0 -- -- 73
2018-09-29 20:00:00 19.8 16 Este 29 Sudeste 0 -- -- 71
2018-09-29 19:00:00 22.7 8 Oeste 19 Oeste 0 -- -- 65
2018-09-29 18:00:00 23.2 13 Oeste 27 Oeste 0 -- -- 64
2018-09-29 17:00:00 22.9 9 Oeste 37 Este 0 -- -- 68
2018-09-29 16:00:00 22.1 22 Este 37 Este 0 -- -- 68
2018-09-29 15:00:00 23.8 12 Este 32 Este 0 -- -- 63
2018-09-29 14:00:00 23 18 Este 37 Sudeste 0 -- -- 65
2018-09-29 13:00:00 22.6 20 Este 49 Este 0 -- -- 65
2018-09-29 12:00:00 21.5 22 Este 41 Este 0 -- -- 69
2018-09-29 11:00:00 20.7 21 Este 48 Este 0 -- -- 67
2018-09-29 10:00:00 20.2 18 Este 35 Sudeste 0 -- -- 68
2018-09-29 09:00:00 18 12 Sudeste 31 Este 0 -- -- 66
2018-09-29 08:00:00 17.7 17 Este 42 Este 0 -- -- 71
2018-09-29 07:00:00 17.5 27 Este 46 Este 0 -- -- 80
2018-09-29 06:00:00 18.4 24 Este 57 Este 0 -- -- 71
2018-09-29 05:00:00 17.9 31 Este 51 Este 0 -- -- 78
2018-09-29 04:00:00 19.2 28 Este 50 Este 0 -- -- 66
2018-09-29 03:00:00 20.3 27 Este 55 Este 0 -- -- 53
2018-09-29 02:00:00 20.3 30 Este 47 Este 0 -- -- 52
2018-09-29 01:00:00 21 29 Este 54 Este 0 -- -- 48
2018-09-29 00:00:00 22 28 Este 45 Este 0 -- -- 44
2018-09-28 23:00:00 21.9 23 Este 42 Este 0 -- -- 44
2018-09-28 22:00:00 22.5 23 Este 36 Este 0 -- -- 41
2018-09-28 21:00:00 21.2 9 Este 19 Este 0 -- -- 46
2018-09-28 20:00:00 21.1 10 Oeste 16 Oeste 0 -- -- 76
2018-09-28 19:00:00 22.2 6 Oeste 21 Oeste 0 -- -- 71
2018-09-28 18:00:00 24 13 Oeste 23 Oeste 0 -- -- 63
2018-09-28 17:00:00 25.3 13 Oeste 25 Oeste 0 -- -- 60
2018-09-28 16:00:00 25.1 8 Norte 28 Oeste 0 -- -- 50
2018-09-28 15:00:00 24.1 15 Oeste 43 Sudeste 0 -- -- 63
2018-09-28 14:00:00 22.7 25 Este 45 Sudeste 0 -- -- 61
2018-09-28 13:00:00 24.3 17 Sudeste 37 Sudeste 0 -- -- 54
2018-09-28 12:00:00 22.9 12 Sudoeste 30 Este 0 -- -- 70
2018-09-28 11:00:00 20 12 Oeste 22 Oeste 0 -- -- 78
2018-09-28 10:00:00 19.4 10 Sudoeste 22 Oeste 0 -- -- 79
2018-09-28 09:00:00 17.7 5 Oeste 36 Sudeste 0 -- -- 82
2018-09-28 08:00:00 18 23 Este 51 Este 0 -- -- 73
2018-09-28 07:00:00 18.1 8 Oeste 36 Este 0 -- -- 83
2018-09-28 06:00:00 17.4 5 Norte 15 Oeste 0 -- -- 84
2018-09-28 05:00:00 18.6 6 Sudoeste 18 Oeste 0 -- -- 74
2018-09-28 04:00:00 20.1 4 Oeste 23 Sudoeste 0 -- -- 68
2018-09-28 03:00:00 21.7 11 Sudoeste 33 Sudoeste 0 -- -- 57
2018-09-28 02:00:00 23.8 8 Sur 15 Sudeste 0 -- -- 35
2018-09-28 01:00:00 24.3 6 Sur 28 Sudeste 0 -- -- 35
2018-09-28 00:00:00 25.2 15 Sudeste 46 Norte 0 -- -- 33
2018-09-27 23:00:00 25.3 9 Este 43 Nordeste 0 -- -- 33
2018-09-27 22:00:00 25.7 16 Este 51 Nordeste 0 -- -- 31
2018-09-27 21:00:00 25.7 17 Este 42 Norte 0 -- -- 31
2018-09-27 20:00:00 25.5 22 Sudeste 42 Este 0 -- -- 35
2018-09-27 19:00:00 27.1 18 Sudeste 39 Sudeste 0 -- -- 32
2018-09-27 18:00:00 28 19 Este 50 Este 0 -- -- 32
2018-09-27 17:00:00 28.4 9 Nordeste 30 Este 0 -- -- 37
2018-09-27 16:00:00 29.5 19 Este 45 Este 0 -- -- 30
2018-09-27 15:00:00 30.5 8 Noroeste 31 Sudeste 0 -- -- 31
2018-09-27 14:00:00 31 9 Este 36 Norte 0 -- -- 30
2018-09-27 13:00:00 30.4 7 Noroeste 26 Oeste 0 -- -- 37
2018-09-27 12:00:00 30 9 Sur 34 Sudeste 0 -- -- 31
2018-09-27 11:00:00 28.4 17 Sudeste 33 Este 0 -- -- 31
2018-09-27 10:00:00 27.1 15 Este 24 Este 0 -- -- 31
2018-09-27 09:00:00 21.7 6 Este 12 Este 0 -- -- 39
2018-09-27 08:00:00 21 6 Este 12 Nordeste 0 -- -- 40
2018-09-27 07:00:00 21.6 5 Este 12 Nordeste 0 -- -- 38
2018-09-27 06:00:00 23.7 7 Este 18 Este 0 -- -- 34
2018-09-27 05:00:00 24.9 9 Este 22 Este 0 -- -- 33
2018-09-27 04:00:00 23.2 5 Norte 13 Nordeste 0 -- -- 36
2018-09-27 03:00:00 21.5 5 Este 9 Sudoeste 0 -- -- 38
2018-09-27 02:00:00 22 6 Este 11 Sudeste 0 -- -- 37
2018-09-27 01:00:00 21.7 4 Este 11 Nordeste 0 -- -- 37
2018-09-27 00:00:00 22.3 5 Este 10 Este 0 -- -- 37
2018-09-26 23:00:00 23 4 Este 13 Nordeste 0 -- -- 36
2018-09-26 22:00:00 23.2 6 Este 10 Este 0 -- -- 37
2018-09-26 21:00:00 24.6 5 Este 9 Este 0 -- -- 33
2018-09-26 20:00:00 27.6 3 Oeste 13 Sudeste 0 -- -- 33
2018-09-26 19:00:00 29.9 4 Oeste 15 Oeste 0 -- -- 29
2018-09-26 18:00:00 29.8 9 Oeste 18 Oeste 0 -- -- 29
2018-09-26 17:00:00 30.6 12 Oeste 23 Oeste 0 -- -- 29
2018-09-26 16:00:00 30.7 10 Oeste 23 Oeste 0 -- -- 29
2018-09-26 15:00:00 31.3 12 Oeste 26 Oeste 0 -- -- 29
2018-09-26 14:00:00 30.3 14 Oeste 25 Oeste 0 -- -- 32
2018-09-26 13:00:00 29.9 10 Oeste 20 Oeste 0 -- -- 32
2018-09-26 12:00:00 29.8 13 Oeste 21 Noroeste 0 -- -- 32
2018-09-26 11:00:00 30 6 Oeste 13 Oeste 0 -- -- 32
2018-09-26 10:00:00 26.2 5 Este 11 Este 0 -- -- 39
2018-09-26 09:00:00 20.6 8 Este 12 Este 0 -- -- 48
2018-09-26 08:00:00 19.6 8 Este 12 Este 0 -- -- 50
2018-09-26 07:00:00 19.7 8 Este 12 Este 0 -- -- 49
2018-09-26 06:00:00 19.4 8 Este 10 Este 0 -- -- 50
2018-09-26 05:00:00 19.5 7 Este 10 Este 0 -- -- 49
2018-09-26 04:00:00 19.7 7 Este 12 Este 0 -- -- 49
2018-09-26 03:00:00 19.3 6 Este 10 Este 0 -- -- 50
2018-09-26 02:00:00 19.3 4 Este 9 Nordeste 0 -- -- 49
2018-09-26 01:00:00 20.2 4 Este 9 Este 0 -- -- 47
2018-09-26 00:00:00 20.7 6 Este 12 Este 0 -- -- 49
2018-09-25 23:00:00 21 6 Este 10 Este 0 -- -- 48
2018-09-25 22:00:00 22.1 6 Este 9 Este 0 -- -- 45
2018-09-25 21:00:00 23.7 2 Este 7 Este 0 -- -- 43
2018-09-25 20:00:00 26.9 4 Oeste 12 Oeste 0 -- -- 37
2018-09-25 19:00:00 28.4 6 Oeste 20 Oeste 0 -- -- 35
2018-09-25 18:00:00 29.8 10 Oeste 19 Oeste 0 -- -- 35
2018-09-25 17:00:00 30.2 13 Oeste 23 Oeste 0 -- -- 33
2018-09-25 16:00:00 30.7 13 Oeste 24 Oeste 0 -- -- 33
2018-09-25 15:00:00 30.7 11 Oeste 24 Oeste 0 -- -- 31
2018-09-25 14:00:00 30.8 9 Noroeste 21 Oeste 0 -- -- 35
2018-09-25 13:00:00 30.7 10 Noroeste 18 Oeste 0 -- -- 34
2018-09-25 12:00:00 30.9 10 Oeste 19 Oeste 0 -- -- 31
2018-09-25 11:00:00 31.1 9 Oeste 13 Sudeste 0 -- -- 30
2018-09-25 10:00:00 27.7 8 Este 14 Este 0 -- -- 33
2018-09-25 09:00:00 22.5 5 Sudeste 11 Sudeste 0 -- -- 42
2018-09-25 08:00:00 22.9 6 Este 13 Este 0 -- -- 41
2018-09-25 07:00:00 21.4 6 Sudeste 9 Este 0 -- -- 44
2018-09-25 06:00:00 21.4 6 Este 10 Este 0 -- -- 45
2018-09-25 05:00:00 20.7 6 Este 10 Sudeste 0 -- -- 46
2018-09-25 04:00:00 20.1 5 Sudeste 10 Este 0 -- -- 49
2018-09-25 03:00:00 21.8 7 Este 12 Este 0 -- -- 45
2018-09-25 02:00:00 21.6 5 Este 10 Este 0 -- -- 45
2018-09-25 01:00:00 22.2 8 Este 14 Este 0 -- -- 43
2018-09-25 00:00:00 22.1 6 Este 10 Este 0 -- -- 44
2018-09-24 23:00:00 22.1 5 Nordeste 9 Este 0 -- -- 46
2018-09-24 22:00:00 23.3 4 Este 10 Este 0 -- -- 43
2018-09-24 21:00:00 24 7 Este 10 Este 0 -- -- 45
2018-09-24 20:00:00 26.7 0 Calma 10 Noroeste 0 -- -- 44
2018-09-24 19:00:00 28.7 7 Oeste 16 Oeste 0 -- -- 39
2018-09-24 18:00:00 29 9 Oeste 17 Oeste 0 -- -- 38
2018-09-24 17:00:00 28.5 9 Oeste 21 Oeste 0 -- -- 41
2018-09-24 16:00:00 29.2 13 Oeste 36 Este 0 -- -- 47
2018-09-24 15:00:00 30.3 23 Este 39 Este 0 -- -- 31
2018-09-24 14:00:00 30.3 19 Este 39 Este 0 -- -- 30
2018-09-24 13:00:00 29.4 25 Este 48 Este 0 -- -- 31
2018-09-24 12:00:00 28.2 29 Este 48 Este 0 -- -- 33
2018-09-24 11:00:00 28 26 Este 45 Este 0 -- -- 34
2018-09-24 10:00:00 26.6 21 Este 36 Este 0 -- -- 37
2018-09-24 09:00:00 24.2 23 Este 40 Sudeste 0 -- -- 40
2018-09-24 08:00:00 24.4 21 Este 40 Este 0 -- -- 40
2018-09-24 07:00:00 25.3 22 Este 51 Este 0 -- -- 38
2018-09-24 06:00:00 26 21 Este 45 Este 0 -- -- 36
2018-09-24 05:00:00 24.3 21 Este 38 Este 0 -- -- 42
2018-09-24 04:00:00 24 22 Este 41 Este 0 -- -- 43
2018-09-24 03:00:00 24.3 26 Este 41 Este 0 -- -- 43
2018-09-24 02:00:00 24.2 15 Este 31 Este 0 -- -- 43
2018-09-24 01:00:00 23.7 17 Este 35 Este 0 -- -- 46
2018-09-24 00:00:00 23.7 11 Este 31 Sudeste 0 -- -- 46
2018-09-23 23:00:00 24.9 12 Sudeste 30 Este 0 -- -- 41
2018-09-23 22:00:00 25.5 17 Este 31 Sudeste 0 -- -- 38
2018-09-23 21:00:00 25.9 12 Este 27 Este 0 -- -- 38
2018-09-23 20:00:00 27 13 Este 24 Este 0 -- -- 37
2018-09-23 19:00:00 28.6 13 Sudeste 25 Sudeste 0 -- -- 35
2018-09-23 18:00:00 29 14 Este 21 Este 0 -- -- 35
2018-09-23 17:00:00 29.5 11 Oeste 33 Este 0 -- -- 46
2018-09-23 16:00:00 30.3 19 Sudeste 37 Sudeste 0 -- -- 34
2018-09-23 15:00:00 30.3 15 Este 29 Sudeste 0 -- -- 34
2018-09-23 14:00:00 29.6 14 Sudeste 35 Este 0 -- -- 34
2018-09-23 13:00:00 29.2 23 Este 45 Este 0 -- -- 35
2018-09-23 12:00:00 28.6 26 Este 42 Este 0 -- -- 34
2018-09-23 11:00:00 28.2 18 Este 44 Este 0 -- -- 27
2018-09-23 10:00:00 26.2 14 Este 34 Sudeste 0 -- -- 17
2018-09-23 09:00:00 22.7 15 Este 28 Sudeste 0 -- -- 17
2018-09-23 08:00:00 17.5 3 Noroeste 13 Oeste 0 -- -- 56
2018-09-23 07:00:00 19.4 6 Este 18 Sudeste 0 -- -- 49
2018-09-23 06:00:00 21 5 Sudeste 35 Este 0 -- -- 27
2018-09-23 05:00:00 21.9 8 Este 24 Este 0 -- -- 25
2018-09-23 04:00:00 20.6 4 Este 14 Nordeste 0 -- -- 25
2018-09-23 03:00:00 20.6 6 Este 17 Este 0 -- -- 27
2018-09-23 02:00:00 19.1 4 Este 10 Este 0 -- -- 36
2018-09-23 01:00:00 19.8 5 Este 14 Sudeste 0 -- -- 35
2018-09-23 00:00:00 19.8 4 Este 15 Sudeste 0 -- -- 38
2018-09-22 23:00:00 18.6 5 Este 11 Este 0 -- -- 38
2018-09-22 22:00:00 17.9 4 Este 11 Este 0 -- -- 42
2018-09-22 21:00:00 18.6 8 Este 11 Este 0 -- -- 45
2018-09-22 20:00:00 21.8 6 Oeste 13 Oeste 0 -- -- 68
2018-09-22 19:00:00 23.5 6 Oeste 14 Oeste 0 -- -- 64
2018-09-22 18:00:00 23.3 11 Oeste 19 Oeste 0 -- -- 64
2018-09-22 17:00:00 23.2 9 Oeste 21 Oeste 0 -- -- 64
2018-09-22 16:00:00 23.2 12 Oeste 20 Oeste 0 -- -- 65
2018-09-22 15:00:00 22.8 12 Oeste 24 Noroeste 0 -- -- 65
2018-09-22 14:00:00 22.3 10 Oeste 21 Sudoeste 0 -- -- 68
2018-09-22 13:00:00 21.8 11 Oeste 24 Oeste 0 -- -- 69
2018-09-22 12:00:00 21.6 7 Oeste 18 Oeste 0 -- -- 69
2018-09-22 11:00:00 20.7 5 Oeste 9 Oeste 0 -- -- 69
2018-09-22 10:00:00 17.3 2 Noroeste 5 Este 0 -- -- 83
2018-09-22 09:00:00 13.3 3 Sudeste 6 Este 0 -- -- 94
2018-09-22 08:00:00 13.4 3 Este 7 Este 0 -- -- 91
2018-09-22 07:00:00 13.3 2 Este 8 Sudeste 0 -- -- 92
2018-09-22 06:00:00 13.8 5 Este 7 Este 0 -- -- 93
2018-09-22 05:00:00 13.7 0 Calma 22 Sudeste 0 -- -- 90
2018-09-22 04:00:00 13.8 5 Este 9 Nordeste 0 -- -- 93
2018-09-22 03:00:00 14.5 4 Este 8 Este 0 -- -- 91
2018-09-22 02:00:00 15.2 5 Este 8 Este 0 -- -- 92
2018-09-22 01:00:00 15.4 5 Este 9 Este 0 -- -- 94
2018-09-22 00:00:00 15.9 3 Este 8 Nordeste 0 -- -- 91